Ustick, Illinois
Current Conditions -  °F | °C
As of 3:35 PM on Friday 31 Oct 2014 (Local Time) from KSQI Reporting Station
Few Clouds Few Clouds  
Wind Chill: 33°   Ceiling: Unl
Heat Index: 41°   Visibility: 10mi
Dew Point: 19°   Wind: 16mph
Humidity: 42%   Direction: 10°N
Pressure: 30.32"   Gusts: 31mph
Location:  41.8285°N, 89.9656°W
Report Text: KSQI 312035Z AUTO 01014G27KT 10SM FEW050 05/M07 A3032 RMK AO1
Loading
Personal Weather Stations






























Interactive Weather Map New forecast layout! Learn more

10-Day Weather Forecast

Advertisements
Track Severe Weather on mobile